createdAt,value
2019-04-25T00:02:14.922Z,100259.95
2019-04-25T00:04:46.792Z,100267.73
2019-04-25T00:07:18.837Z,100267.48
2019-04-25T00:09:54.950Z,100271.11
2019-04-25T00:12:26.311Z,100271.42
2019-04-25T00:14:57.791Z,100271.66
2019-04-25T00:17:31.554Z,100267.80
2019-04-25T00:20:05.017Z,100269.66
2019-04-25T00:22:42.578Z,100270.41
2019-04-25T00:25:18.506Z,100274.38
2019-04-25T00:27:49.760Z,100274.77
2019-04-25T00:30:22.739Z,100269.54
2019-04-25T00:32:54.243Z,100262.62
2019-04-25T00:35:25.683Z,100269.58
2019-04-25T00:37:57.006Z,100261.31
2019-04-25T00:40:28.241Z,100261.31
2019-04-25T00:43:01.476Z,100254.41
2019-04-25T00:45:32.957Z,100257.98
2019-04-25T00:48:04.976Z,100255.79
2019-04-25T00:50:36.488Z,100254.40
2019-04-25T00:53:07.923Z,100257.73
2019-04-25T00:55:39.412Z,100265.20
2019-04-25T00:58:12.481Z,100265.48
2019-04-25T01:00:57.256Z,100256.63
2019-04-25T01:03:32.610Z,100263.56
2019-04-25T01:06:03.976Z,100252.19
2019-04-25T01:08:35.473Z,100258.00
2019-04-25T01:11:06.888Z,100256.88
2019-04-25T01:13:38.239Z,100257.46
2019-04-25T01:16:09.823Z,100257.72
2019-04-25T01:18:41.144Z,100256.33
2019-04-25T01:21:14.043Z,100253.58
2019-04-25T01:23:45.848Z,100261.86
2019-04-25T01:26:17.777Z,100254.69
2019-04-25T01:28:49.697Z,100254.70
2019-04-25T01:31:23.349Z,100254.13
2019-04-25T01:33:56.573Z,100251.93
2019-04-25T01:36:33.220Z,100254.41
2019-04-25T01:39:08.636Z,100247.48
2019-04-25T01:41:41.509Z,100251.35
2019-04-25T01:44:20.186Z,100245.54
2019-04-25T01:46:51.869Z,100244.98
2019-04-25T01:49:24.217Z,100245.28
2019-04-25T01:51:57.387Z,100248.59
2019-04-25T01:54:28.816Z,100243.60
2019-04-25T01:57:00.018Z,100248.33
2019-04-25T01:59:33.706Z,100249.41
2019-04-25T02:02:06.889Z,100242.80
2019-04-25T02:04:38.351Z,100247.75
2019-04-25T02:07:09.752Z,100248.30
2019-04-25T02:09:41.176Z,100245.80
2019-04-25T02:12:16.800Z,100249.41
2019-04-25T02:14:48.108Z,100249.69
2019-04-25T02:17:20.133Z,100250.52
2019-04-25T02:19:52.131Z,100252.17
2019-04-25T02:22:24.396Z,100247.72
2019-04-25T02:24:56.247Z,100248.81
2019-04-25T02:27:28.395Z,100251.05
2019-04-25T02:29:59.539Z,100247.73
2019-04-25T02:32:31.034Z,100248.58
2019-04-25T02:35:07.898Z,100246.92
2019-04-25T02:37:35.518Z,100244.16
2019-04-25T02:40:08.487Z,100251.64
2019-04-25T02:42:39.951Z,100251.08
2019-04-25T02:45:19.124Z,100253.28
2019-04-25T02:48:10.093Z,100248.84
2019-04-25T02:50:59.729Z,100257.44
2019-04-25T02:53:37.294Z,100255.75
2019-04-25T02:56:27.541Z,100253.81
2019-04-25T02:58:44.284Z,100259.34
2019-04-25T03:01:22.388Z,100254.37
2019-04-25T03:03:50.596Z,100256.05
2019-04-25T03:06:21.988Z,100250.25
2019-04-25T03:08:54.390Z,100255.78
2019-04-25T03:11:25.974Z,100257.44
2019-04-25T03:13:57.776Z,100252.19
2019-04-25T03:16:29.957Z,100246.37
2019-04-25T03:19:20.799Z,100250.25
2019-04-25T03:21:56.291Z,100255.23
2019-04-25T03:24:27.444Z,100251.35
2019-04-25T03:26:59.407Z,100253.57
2019-04-25T03:29:30.790Z,100259.66
2019-04-25T03:32:05.033Z,100259.92
2019-04-25T03:34:35.355Z,100257.16
2019-04-25T03:37:06.756Z,100260.48
2019-04-25T03:39:38.967Z,100256.89
2019-04-25T03:42:10.278Z,100259.67
2019-04-25T03:44:43.752Z,100262.70
2019-04-25T03:47:15.074Z,100267.13
2019-04-25T03:49:46.283Z,100261.31
2019-04-25T03:52:17.482Z,100258.84
2019-04-25T03:54:49.663Z,100258.02
2019-04-25T03:57:20.765Z,100262.72
2019-04-25T03:59:53.622Z,100257.45
2019-04-25T04:02:25.232Z,100256.61
2019-04-25T04:04:56.676Z,100253.56
2019-04-25T04:07:28.472Z,100254.41
2019-04-25T04:09:59.907Z,100253.30
2019-04-25T04:12:31.629Z,100259.94
2019-04-25T04:15:04.772Z,100253.86
2019-04-25T04:17:37.999Z,100254.95
2019-04-25T04:20:10.992Z,100250.53
2019-04-25T04:22:59.785Z,100253.31
2019-04-25T04:25:31.085Z,100252.44
2019-04-25T04:28:03.801Z,100249.17
2019-04-25T04:30:35.501Z,100248.61
2019-04-25T04:33:06.999Z,100256.06
2019-04-25T04:35:38.365Z,100255.50
2019-04-25T04:38:09.840Z,100251.05
2019-04-25T04:40:41.257Z,100241.92
2019-04-25T04:43:15.290Z,100241.64
2019-04-25T04:45:46.359Z,100246.32
2019-04-25T04:48:19.186Z,100233.28
2019-04-25T04:50:51.286Z,100233.28
2019-04-25T04:53:23.571Z,100241.57
2019-04-25T04:55:54.925Z,100247.08
2019-04-25T04:58:26.181Z,100234.36
2019-04-25T05:00:59.054Z,100234.36
2019-04-25T05:03:46.851Z,100241.22
2019-04-25T05:06:23.996Z,100241.22
2019-04-25T05:08:57.063Z,100239.30
2019-04-25T05:11:28.505Z,100231.53
2019-04-25T05:13:59.809Z,100233.45
2019-04-25T05:16:31.223Z,100237.03
2019-04-25T05:19:03.739Z,100240.91
2019-04-25T05:21:35.163Z,100237.58
2019-04-25T05:24:06.306Z,100237.58
2019-04-25T05:26:37.478Z,100237.91
2019-04-25T05:29:09.056Z,100236.31
2019-04-25T05:31:48.008Z,100238.82
2019-04-25T05:34:19.630Z,100231.66
2019-04-25T05:36:51.343Z,100224.18
2019-04-25T05:39:24.037Z,100233.28
2019-04-25T05:41:57.259Z,100237.97
2019-04-25T05:44:28.485Z,100232.66
2019-04-25T05:46:59.763Z,100232.39
2019-04-25T05:49:31.303Z,100234.88
2019-04-25T05:52:04.030Z,100226.27
2019-04-25T05:54:37.173Z,100225.73
2019-04-25T05:57:08.497Z,100227.88
2019-04-25T05:59:39.782Z,100231.45
2019-04-25T06:02:11.081Z,100213.77
2019-04-25T06:04:43.584Z,100221.83
2019-04-25T06:07:15.169Z,100224.05
2019-04-25T06:09:51.089Z,100229.88
2019-04-25T06:12:26.748Z,100230.72
2019-04-25T06:14:59.497Z,100220.19
2019-04-25T06:17:46.727Z,100216.06
2019-04-25T06:20:23.562Z,100217.47
2019-04-25T06:23:13.440Z,100222.84
2019-04-25T06:25:44.809Z,100222.84
2019-04-25T06:28:26.637Z,100215.32
2019-04-25T06:30:58.303Z,100213.59
2019-04-25T06:33:29.492Z,100218.55
2019-04-25T06:36:01.420Z,100210.73
2019-04-25T06:38:33.501Z,100216.52
2019-04-25T06:41:05.133Z,100206.80
2019-04-25T06:43:38.761Z,100208.69
2019-04-25T06:46:21.095Z,100206.44
2019-04-25T06:48:54.327Z,100202.52
2019-04-25T06:51:28.057Z,100207.77
2019-04-25T06:53:59.646Z,100207.45
2019-04-25T06:56:30.815Z,100210.48
2019-04-25T06:59:03.499Z,100201.59
2019-04-25T07:01:34.953Z,100204.33
2019-04-25T07:04:06.250Z,100202.09
2019-04-25T07:06:37.376Z,100199.02
2019-04-25T07:09:10.143Z,100192.91
2019-04-25T07:11:41.703Z,100194.54
2019-04-25T07:14:14.216Z,100195.91
2019-04-25T07:16:46.288Z,100195.88
2019-04-25T07:19:17.793Z,100196.39
2019-04-25T07:21:49.375Z,100190.83
2019-04-25T07:24:21.013Z,100196.63
2019-04-25T07:27:00.121Z,100196.86
2019-04-25T07:29:38.775Z,100188.53
2019-04-25T07:32:20.574Z,100209.61
2019-04-25T07:34:51.787Z,100198.20
2019-04-25T07:37:24.233Z,100198.25
2019-04-25T07:39:55.857Z,100196.55
2019-04-25T07:42:27.684Z,100197.62
2019-04-25T07:45:03.996Z,100192.31
2019-04-25T07:47:36.317Z,100188.16
2019-04-25T07:50:09.333Z,100199.80
2019-04-25T07:52:40.955Z,100200.62
2019-04-25T07:55:13.767Z,100201.45
2019-04-25T07:57:45.170Z,100193.13
2019-04-25T08:00:18.598Z,100193.41
2019-04-25T08:02:49.988Z,100188.41
2019-04-25T08:05:24.064Z,100188.11
2019-04-25T08:07:55.363Z,100182.30
2019-04-25T08:10:27.982Z,100183.92
2019-04-25T08:12:59.434Z,100175.84
2019-04-25T08:15:38.735Z,100190.27
2019-04-25T08:18:10.614Z,100179.16
2019-04-25T08:20:43.389Z,100169.43
2019-04-25T08:23:15.052Z,100172.75
2019-04-25T08:25:47.362Z,100182.72
2019-04-25T08:28:18.903Z,100185.50
2019-04-25T08:30:50.385Z,100195.22
2019-04-25T08:33:23.728Z,100180.78
2019-04-25T08:36:04.409Z,100176.59
2019-04-25T08:38:28.648Z,100167.13
2019-04-25T08:41:04.088Z,100165.20
2019-04-25T08:43:37.800Z,100164.34
2019-04-25T08:46:08.560Z,100163.81
2019-04-25T08:48:57.520Z,100168.21
2019-04-25T08:51:32.140Z,100155.98
2019-04-25T08:54:05.219Z,100147.96
2019-04-25T08:56:37.825Z,100141.27
2019-04-25T08:59:14.236Z,100150.69
2019-04-25T09:02:03.455Z,100145.13
2019-04-25T09:04:40.126Z,100138.72
2019-04-25T09:07:13.468Z,100142.08
2019-04-25T09:09:45.238Z,100129.28
2019-04-25T09:12:16.562Z,100139.80
2019-04-25T09:14:47.835Z,100143.42
2019-04-25T09:17:19.314Z,100145.64
2019-04-25T09:19:50.812Z,100140.92
2019-04-25T09:22:22.227Z,100120.09
2019-04-25T09:24:53.965Z,100136.17
2019-04-25T09:27:25.744Z,100125.06
2019-04-25T09:29:57.341Z,100131.98
2019-04-25T09:32:29.426Z,100125.59
2019-04-25T09:35:00.751Z,100129.76
2019-04-25T09:37:33.481Z,100126.17
2019-04-25T09:40:08.796Z,100117.54
2019-04-25T09:42:41.496Z,100107.05
2019-04-25T09:45:33.443Z,100112.00
2019-04-25T09:48:06.576Z,100107.28
2019-04-25T09:50:48.442Z,100103.36
2019-04-25T09:53:23.224Z,100107.28
2019-04-25T09:55:57.133Z,100101.73
2019-04-25T09:58:29.990Z,100091.39
2019-04-25T10:01:15.052Z,100091.14
2019-04-25T10:03:47.333Z,100092.23
2019-04-25T10:06:19.067Z,100083.92
2019-04-25T10:08:50.860Z,100085.06
2019-04-25T10:11:23.707Z,100090.86
2019-04-25T10:14:13.618Z,100088.90
2019-04-25T10:16:45.592Z,100073.92
2019-04-25T10:19:17.138Z,100091.67
2019-04-25T10:21:49.666Z,100088.90
2019-04-25T10:24:21.316Z,100084.45
2019-04-25T10:26:54.402Z,100079.73
2019-04-25T10:29:25.937Z,100068.06
2019-04-25T10:31:57.242Z,100074.70
2019-04-25T10:34:28.663Z,100059.42
2019-04-25T10:37:00.166Z,100071.62
2019-04-25T10:39:33.802Z,100070.53
2019-04-25T10:42:04.870Z,100075.81
2019-04-25T10:44:36.029Z,100075.78
2019-04-25T10:47:07.483Z,100063.84
2019-04-25T10:49:39.810Z,100063.56
2019-04-25T10:52:11.887Z,100076.59
2019-04-25T10:54:45.272Z,100062.42
2019-04-25T10:57:16.259Z,100079.93
2019-04-25T11:00:01.158Z,100066.88
2019-04-25T11:02:20.796Z,100051.59
2019-04-25T11:05:05.561Z,100057.39
2019-04-25T11:07:37.478Z,100054.06
2019-04-25T11:10:09.058Z,100050.70
2019-04-25T11:12:41.414Z,100060.42
2019-04-25T11:15:14.304Z,100055.39
2019-04-25T11:17:46.735Z,100043.17
2019-04-25T11:20:26.792Z,100038.72
2019-04-25T11:22:58.307Z,100039.55
2019-04-25T11:25:29.559Z,100039.25
2019-04-25T11:28:00.742Z,100029.52
2019-04-25T11:30:31.985Z,100032.30
2019-04-25T11:33:04.207Z,100047.59
2019-04-25T11:35:35.724Z,100062.01
2019-04-25T11:38:08.574Z,100040.92
2019-04-25T11:40:47.857Z,100036.75
2019-04-25T11:43:17.185Z,100031.75
2019-04-25T11:45:49.242Z,100019.77
2019-04-25T11:48:20.957Z,100021.99
2019-04-25T11:50:55.498Z,100016.16
2019-04-25T11:53:25.462Z,100018.08
2019-04-25T11:55:56.858Z,100016.44
2019-04-25T11:58:28.124Z,100012.52
2019-04-25T12:00:59.574Z,100003.63
2019-04-25T12:03:31.159Z,100008.34
2019-04-25T12:06:02.775Z,99992.73
2019-04-25T12:08:34.133Z,99994.95
2019-04-25T12:11:06.021Z,99982.45
2019-04-25T12:13:37.655Z,99983.84
2019-04-25T12:16:09.106Z,99981.30
2019-04-25T12:18:40.486Z,99985.75
2019-04-25T12:21:13.503Z,99983.77
2019-04-25T12:23:46.394Z,99993.50
2019-04-25T12:26:17.681Z,99979.88
2019-04-25T12:28:49.331Z,99980.19
2019-04-25T12:31:20.560Z,99976.83
2019-04-25T12:33:54.783Z,99963.45
2019-04-25T12:36:25.839Z,99957.03
2019-04-25T12:38:57.076Z,99972.31
2019-04-25T12:41:28.541Z,99965.13
2019-04-25T12:44:08.814Z,99970.92
2019-04-25T12:46:43.605Z,99959.25
2019-04-25T12:49:15.328Z,99964.50
2019-04-25T12:51:47.521Z,99961.72
2019-04-25T12:54:19.657Z,99962.80
2019-04-25T12:56:52.201Z,99953.48
2019-04-25T12:59:24.690Z,99954.44
2019-04-25T13:01:56.071Z,99949.34
2019-04-25T13:04:27.270Z,99943.69
2019-04-25T13:06:58.707Z,99939.55
2019-04-25T13:09:30.246Z,99932.38
2019-04-25T13:12:05.965Z,99932.69
2019-04-25T13:14:37.350Z,99939.63
2019-04-25T13:17:09.615Z,99931.36
2019-04-25T13:19:59.519Z,99938.61
2019-04-25T13:22:31.061Z,99928.20
2019-04-25T13:25:03.454Z,99938.22
2019-04-25T13:27:39.768Z,99931.05
2019-04-25T13:30:14.033Z,99927.36
2019-04-25T13:32:47.865Z,99925.05
2019-04-25T13:35:20.850Z,99925.80
2019-04-25T13:37:53.887Z,99915.19
2019-04-25T13:40:25.635Z,99925.13
2019-04-25T13:42:57.977Z,99915.94
2019-04-25T13:45:29.389Z,99926.71
2019-04-25T13:48:00.620Z,99914.36
2019-04-25T13:50:31.999Z,99915.30
2019-04-25T13:53:03.409Z,99915.73
2019-04-25T13:55:34.730Z,99909.56
2019-04-25T13:58:06.458Z,99908.48
2019-04-25T14:00:37.960Z,99907.70
2019-04-25T14:03:09.427Z,99905.92
2019-04-25T14:05:40.743Z,99908.86
2019-04-25T14:08:13.454Z,99903.56
2019-04-25T14:10:48.712Z,99895.56
2019-04-25T14:13:21.155Z,99893.70
2019-04-25T14:15:54.977Z,99892.03
2019-04-25T14:18:44.269Z,99887.72
2019-04-25T14:21:17.230Z,99889.56
2019-04-25T14:23:51.031Z,99891.91
2019-04-25T14:26:23.035Z,99883.71
2019-04-25T14:28:54.313Z,99878.11
2019-04-25T14:31:41.042Z,99882.16
2019-04-25T14:33:58.745Z,99879.63
2019-04-25T14:36:30.260Z,99883.15
2019-04-25T14:39:01.610Z,99885.59
2019-04-25T14:41:33.169Z,99881.89
2019-04-25T14:44:04.506Z,99872.69
2019-04-25T14:46:36.510Z,99873.22
2019-04-25T14:49:07.724Z,99871.58
2019-04-25T14:51:39.295Z,99875.99
2019-04-25T14:54:15.663Z,99877.08
2019-04-25T14:57:06.838Z,99867.08
2019-04-25T14:59:38.493Z,99862.84
2019-04-25T15:02:09.838Z,99858.09
2019-04-25T15:04:41.245Z,99855.56
2019-04-25T15:07:12.746Z,99856.39
2019-04-25T15:09:44.193Z,99860.25
2019-04-25T15:12:15.824Z,99858.55
2019-04-25T15:14:47.163Z,99855.19
2019-04-25T15:17:18.561Z,99852.09
2019-04-25T15:19:50.099Z,99864.05
2019-04-25T15:22:21.462Z,99850.64
2019-04-25T15:24:52.827Z,99852.03
2019-04-25T15:27:25.097Z,99846.23
2019-04-25T15:29:56.768Z,99847.59
2019-04-25T15:32:30.583Z,99848.11
2019-04-25T15:35:06.251Z,99844.70
2019-04-25T15:37:39.146Z,99837.76
2019-04-25T15:40:14.936Z,99838.59
2019-04-25T15:42:48.167Z,99836.02
2019-04-25T15:45:21.097Z,99839.33
2019-04-25T15:47:53.386Z,99836.23
2019-04-25T15:50:26.319Z,99842.31
2019-04-25T15:52:57.975Z,99842.63
2019-04-25T15:55:29.708Z,99833.97
2019-04-25T15:58:01.101Z,99834.49
2019-04-25T16:00:34.915Z,99828.38
2019-04-25T16:03:07.136Z,99831.37
2019-04-25T16:05:38.519Z,99825.50
2019-04-25T16:08:09.759Z,99832.69
2019-04-25T16:10:41.223Z,99827.13
2019-04-25T16:13:12.621Z,99824.94
2019-04-25T16:15:44.034Z,99827.72
2019-04-25T16:18:15.581Z,99823.79
2019-04-25T16:20:47.030Z,99827.68
2019-04-25T16:23:18.473Z,99825.73
2019-04-25T16:25:50.443Z,99825.73
2019-04-25T16:28:21.629Z,99828.20
2019-04-25T16:30:53.144Z,99828.76
2019-04-25T16:33:24.457Z,99831.26
2019-04-25T16:35:55.935Z,99827.89
2019-04-25T16:38:27.608Z,99829.00
2019-04-25T16:40:58.871Z,99825.63
2019-04-25T16:43:32.294Z,99825.63
2019-04-25T16:46:03.775Z,99823.92
2019-04-25T16:48:35.684Z,99826.14
2019-04-25T16:51:07.184Z,99829.76
2019-04-25T16:53:38.624Z,99830.94
2019-04-25T16:56:10.407Z,99832.92
2019-04-25T16:58:44.909Z,99835.42
2019-04-25T17:01:17.974Z,99833.52
2019-04-25T17:03:49.384Z,99835.67
2019-04-25T17:06:20.824Z,99831.26
2019-04-25T17:08:52.236Z,99837.38
2019-04-25T17:11:24.187Z,99833.45
2019-04-25T17:13:57.026Z,99835.11
2019-04-25T17:16:45.817Z,99836.81
2019-04-25T17:19:18.602Z,99839.84
2019-04-25T17:21:49.694Z,99838.77
2019-04-25T17:24:20.814Z,99837.89
2019-04-25T17:26:52.644Z,99838.41
2019-04-25T17:29:23.808Z,99838.13
2019-04-25T17:31:59.770Z,99842.58
2019-04-25T17:34:35.496Z,99838.41
2019-04-25T17:37:08.641Z,99841.44
2019-04-25T17:39:44.260Z,99839.52
2019-04-25T17:42:17.038Z,99845.05
2019-04-25T17:44:49.772Z,99842.58
2019-04-25T17:47:21.089Z,99843.97
2019-04-25T17:49:52.320Z,99841.44
2019-04-25T17:52:34.786Z,99843.91
2019-04-25T17:55:08.758Z,99841.91
2019-04-25T17:57:40.091Z,99845.72
2019-04-25T18:00:13.215Z,99846.52
2019-04-25T18:02:44.946Z,99845.92
2019-04-25T18:05:16.458Z,99845.44
2019-04-25T18:07:47.777Z,99849.65
2019-04-25T18:10:19.301Z,99841.19
2019-04-25T18:12:50.655Z,99845.94
2019-04-25T18:15:39.850Z,99849.24
2019-04-25T18:18:15.360Z,99849.80
2019-04-25T18:20:46.882Z,99846.46
2019-04-25T18:23:31.669Z,99849.48
2019-04-25T18:26:04.462Z,99846.70
2019-04-25T18:28:41.481Z,99843.36
2019-04-25T18:31:12.970Z,99850.00
2019-04-25T18:33:44.321Z,99844.44
2019-04-25T18:36:29.334Z,99841.34
2019-04-25T18:39:05.006Z,99836.62
2019-04-25T18:41:40.575Z,99843.22
2019-04-25T18:44:13.331Z,99841.55
2019-04-25T18:46:51.778Z,99844.61
2019-04-25T18:49:22.968Z,99840.95
2019-04-25T18:51:58.089Z,99839.29
2019-04-25T18:54:37.442Z,99844.84
2019-04-25T18:57:19.261Z,99849.61
2019-04-25T18:59:54.702Z,99849.30
2019-04-25T19:02:39.761Z,99841.75
2019-04-25T19:05:31.862Z,99843.45
2019-04-25T19:08:04.766Z,99842.34
2019-04-25T19:10:36.676Z,99850.69
2019-04-25T19:13:13.011Z,99851.00
2019-04-25T19:15:41.283Z,99850.41
2019-04-25T19:18:12.750Z,99857.64
2019-04-25T19:20:44.394Z,99851.20
2019-04-25T19:23:15.653Z,99855.41
2019-04-25T19:25:47.783Z,99855.94
2019-04-25T19:28:19.176Z,99857.88
2019-04-25T19:30:51.398Z,99853.98
2019-04-25T19:33:34.933Z,99857.88
2019-04-25T19:35:57.424Z,99863.45
2019-04-25T19:38:28.658Z,99863.13
2019-04-25T19:41:07.785Z,99860.62
2019-04-25T19:43:47.442Z,99857.01
2019-04-25T19:46:18.778Z,99859.55
2019-04-25T19:48:51.111Z,99858.16
2019-04-25T19:51:26.450Z,99861.19
2019-04-25T19:53:59.249Z,99865.91
2019-04-25T19:56:33.106Z,99868.13
2019-04-25T19:59:05.146Z,99860.42
2019-04-25T20:01:36.766Z,99861.81
2019-04-25T20:04:09.680Z,99858.23
2019-04-25T20:06:58.896Z,99864.95
2019-04-25T20:09:34.504Z,99864.63
2019-04-25T20:12:10.526Z,99866.02
2019-04-25T20:14:45.615Z,99866.30
2019-04-25T20:17:17.310Z,99867.97
2019-04-25T20:19:54.099Z,99864.08
2019-04-25T20:22:27.550Z,99866.42
2019-04-25T20:24:59.042Z,99864.68
2019-04-25T20:27:30.839Z,99865.16
2019-04-25T20:30:02.450Z,99864.22
2019-04-25T20:32:46.306Z,99859.44
2019-04-25T20:35:17.951Z,99859.95
2019-04-25T20:37:56.880Z,99865.88
2019-04-25T20:40:31.026Z,99866.75
2019-04-25T20:43:05.136Z,99863.81
2019-04-25T20:45:39.127Z,99864.37
2019-04-25T20:48:14.308Z,99873.23
2019-04-25T20:50:46.830Z,99868.19
2019-04-25T20:53:18.453Z,99873.51
2019-04-25T20:55:50.830Z,99871.84
2019-04-25T20:58:22.283Z,99869.93
2019-04-25T21:00:57.935Z,99873.30
2019-04-25T21:03:29.308Z,99874.98
2019-04-25T21:06:05.602Z,99879.73
2019-04-25T21:08:37.797Z,99880.85
2019-04-25T21:11:10.913Z,99880.54
2019-04-25T21:14:01.880Z,99880.81
2019-04-25T21:16:40.880Z,99883.32
2019-04-25T21:19:29.288Z,99882.20
2019-04-25T21:22:01.105Z,99879.14
2019-04-25T21:24:32.659Z,99888.39
2019-04-25T21:27:03.784Z,99887.60
2019-04-25T21:29:35.303Z,99891.02
2019-04-25T21:32:06.630Z,99891.16
2019-04-25T21:34:37.869Z,99891.38
2019-04-25T21:37:09.379Z,99901.41
2019-04-25T21:39:45.988Z,99901.55
2019-04-25T21:42:31.528Z,99900.47
2019-04-25T21:45:03.224Z,99882.89
2019-04-25T21:47:34.781Z,99869.30
2019-04-25T21:50:07.412Z,99861.88
2019-04-25T21:52:39.336Z,99870.28
2019-04-25T21:55:10.898Z,99874.62
2019-04-25T21:57:42.621Z,99878.13
2019-04-25T22:00:16.532Z,99884.73
2019-04-25T22:02:48.732Z,99890.05
2019-04-25T22:05:20.549Z,99890.92
2019-04-25T22:07:52.258Z,99896.17
2019-04-25T22:10:24.025Z,99900.34
2019-04-25T22:12:57.719Z,99897.52
2019-04-25T22:15:29.128Z,99902.25
2019-04-25T22:18:00.830Z,99904.16
2019-04-25T22:20:32.386Z,99895.55
2019-04-25T22:23:04.667Z,99901.63
2019-04-25T22:25:36.934Z,99895.27
2019-04-25T22:28:08.536Z,99892.69
2019-04-25T22:30:40.906Z,99896.30
2019-04-25T22:33:16.533Z,99895.47
2019-04-25T22:35:49.609Z,99891.38
2019-04-25T22:38:21.248Z,99896.94
2019-04-25T22:40:52.810Z,99891.23
2019-04-25T22:43:24.508Z,99893.21
2019-04-25T22:45:57.563Z,99890.19
2019-04-25T22:48:46.637Z,99889.95
2019-04-25T22:51:24.736Z,99891.12
2019-04-25T22:53:56.671Z,99884.70
2019-04-25T22:56:31.142Z,99884.17
2019-04-25T22:59:03.105Z,99891.72
2019-04-25T23:01:36.826Z,99888.13
2019-04-25T23:04:10.616Z,99896.16
2019-04-25T23:06:43.037Z,99888.83
2019-04-25T23:09:14.393Z,99890.26
2019-04-25T23:11:46.051Z,99888.06
2019-04-25T23:14:17.901Z,99885.28
2019-04-25T23:16:49.428Z,99884.21
2019-04-25T23:19:22.174Z,99885.95
2019-04-25T23:21:53.768Z,99887.34
2019-04-25T23:24:26.833Z,99890.67
2019-04-25T23:27:10.470Z,99884.77
2019-04-25T23:29:46.577Z,99892.58
2019-04-25T23:32:17.955Z,99888.76
2019-04-25T23:34:49.215Z,99895.45
2019-04-25T23:37:20.770Z,99893.83
2019-04-25T23:39:52.118Z,99899.66
2019-04-25T23:42:23.513Z,99897.72
2019-04-25T23:44:54.955Z,99905.50
2019-04-25T23:47:26.995Z,99905.19
2019-04-25T23:49:58.677Z,99903.59
2019-04-25T23:52:30.133Z,99908.59
2019-04-25T23:55:01.451Z,99906.58
2019-04-25T23:57:32.741Z,99913.52
